TimeCEST,TemperatureF,Dew PointF,Humidity,Sea Level PressureIn,VisibilityMPH,Wind Direction,Wind SpeedMPH,Gust SpeedMPH,PrecipitationIn,Events,Conditions,WindDirDegrees,DateUTC
12:55 AM,62.6,59.0,88,30.04,-9999.0,ENE,5.8,-,N/A,,Clear,70,2012-10-03 22:55:00
2:00 AM,63,59,81,30.06,6,ENE,6.9,,,,Scattered Clouds,60,2012-10-04 00:00:00
2:55 AM,62.6,59.0,88,30.04,6.2,ENE,3.5,-,N/A,,Partly Cloudy,60,2012-10-04 00:55:00
3:55 AM,62.6,59.0,88,30.04,6.2,East,6.9,-,N/A,,Partly Cloudy,90,2012-10-04 01:55:00
4:55 AM,62.6,57.2,82,30.04,6.2,East,5.8,-,N/A,,Scattered Clouds,80,2012-10-04 02:55:00
5:55 AM,66.2,59.0,78,30.04,6.2,East,9.2,-,N/A,,Partly Cloudy,100,2012-10-04 03:55:00
6:55 AM,66.2,59.0,78,30.04,6.2,East,9.2,-,N/A,,Partly Cloudy,80,2012-10-04 04:55:00
7:55 AM,66.2,59.0,78,30.04,6.2,ENE,4.6,-,N/A,,Scattered Clouds,70,2012-10-04 05:55:00
8:00 AM,65,59,74,30.04,6,ENE,4.6,,,,Partly Cloudy,70,2012-10-04 06:00:00
8:55 AM,66.2,59.0,78,30.04,6.2,East,5.8,-,N/A,,Scattered Clouds,90,2012-10-04 06:55:00
9:55 AM,68.0,59.0,73,30.04,6.2,East,6.9,-,N/A,,Scattered Clouds,90,2012-10-04 07:55:00
10:55 AM,71.6,60.8,69,30.04,6.2,East,3.5,-,N/A,,Scattered Clouds,80,2012-10-04 08:55:00
11:55 AM,73.4,60.8,65,30.04,6.2,WSW,2.3,-,N/A,,Partly Cloudy,240,2012-10-04 09:55:00
12:55 PM,75.2,64.4,69,30.01,6.2,West,11.5,-,N/A,,Partly Cloudy,260,2012-10-04 10:55:00
1:55 PM,77.0,66.2,69,30.01,6.2,West,9.2,-,N/A,,Partly Cloudy,260,2012-10-04 11:55:00
2:00 PM,77,65,59,30.02,12,West,9.2,,,,Scattered Clouds,260,2012-10-04 12:00:00
2:55 PM,73.4,62.6,69,30.01,6.2,WSW,6.9,-,N/A,,Partly Cloudy,250,2012-10-04 12:55:00
3:55 PM,73.4,64.4,73,29.98,6.2,West,6.9,-,N/A,,Partly Cloudy,270,2012-10-04 13:55:00
4:55 PM,71.6,60.8,69,29.98,6.2,West,5.8,-,N/A,,Partly Cloudy,260,2012-10-04 14:55:00
5:55 PM,71.6,60.8,69,29.98,6.2,SW,2.3,-,N/A,,Partly Cloudy,220,2012-10-04 15:55:00
6:55 PM,68.0,59.0,73,29.98,-9999.0,NE,1.2,-,N/A,,Clear,40,2012-10-04 16:55:00
7:55 PM,66.2,59.0,78,29.98,-9999.0,ENE,2.3,-,N/A,,Clear,60,2012-10-04 17:55:00
8:00 PM,67,59,69,30.00,6,ENE,2.3,,,,Clear,60,2012-10-04 18:00:00
8:55 PM,66.2,57.2,73,29.98,-9999.0,East,4.6,-,N/A,,Clear,80,2012-10-04 18:55:00
9:55 PM,66.2,55.4,68,29.98,-9999.0,East,2.3,-,N/A,,Clear,80,2012-10-04 19:55:00
10:55 PM,68.0,55.4,64,30.01,-9999.0,East,3.5,-,N/A,,Clear,90,2012-10-04 20:55:00
11:55 PM,64.4,55.4,73,30.01,-9999.0,ENE,2.3,-,N/A,,Clear,60,2012-10-04 21:55:00